Swartz Creek, Michigan
Current Conditions -  °F | °C
As of 9:53 PM on Saturday 25 Oct 2014 (Local Time) from KFNT Reporting Station
Clear Clear  
Wind Chill: 11°   Ceiling: Unl
Heat Index: 11°   Visibility: 10mi
Dew Point:   Wind: 10mph
Humidity: 50%   Direction: 280°W
Pressure: 29.8"   Gusts: NA
Location:  42.96°N, 83.83°W
Report Text: KFNT 260153Z 28009KT 10SM CLR 11/01 A2980 RMK AO2 SLP092 T01110011
Loading
Personal Weather Stations






























Interactive Weather Map
Tropical Storm Tracking
New forecast layout! Learn more

10-Day Weather Forecast

Advertisements
Track Severe Weather on mobile